createdAt,value
2023-02-27T00:02:17.084Z,8.43
2023-02-27T00:04:46.864Z,8.32
2023-02-27T00:07:14.089Z,5.90
2023-02-27T00:09:42.351Z,14.30
2023-02-27T00:12:09.538Z,7.60
2023-02-27T00:14:36.844Z,7.43
2023-02-27T00:17:03.924Z,7.40
2023-02-27T00:19:38.340Z,5.97
2023-02-27T00:22:05.470Z,6.57
2023-02-27T00:24:32.338Z,6.63
2023-02-27T00:26:59.981Z,12.02
2023-02-27T00:29:26.826Z,6.50
2023-02-27T00:31:53.644Z,5.57
2023-02-27T00:34:20.578Z,8.25
2023-02-27T00:36:47.331Z,6.50
2023-02-27T00:39:16.587Z,5.28
2023-02-27T00:41:43.733Z,11.05
2023-02-27T00:44:10.837Z,14.77
2023-02-27T00:46:37.659Z,11.18
2023-02-27T00:49:06.977Z,7.65
2023-02-27T00:51:35.483Z,9.38
2023-02-27T00:54:03.726Z,7.70
2023-02-27T00:56:30.856Z,6.63
2023-02-27T00:58:58.222Z,11.48
2023-02-27T01:01:25.352Z,6.00
2023-02-27T01:03:52.631Z,5.40
2023-02-27T01:06:19.456Z,9.68
2023-02-27T01:08:46.275Z,8.43
2023-02-27T01:11:13.462Z,5.00
2023-02-27T01:13:47.924Z,7.50
2023-02-27T01:16:14.979Z,7.10
2023-02-27T01:18:42.880Z,9.63
2023-02-27T01:21:09.629Z,7.25
2023-02-27T01:23:36.371Z,8.05
2023-02-27T01:26:03.698Z,7.30
2023-02-27T01:28:30.632Z,6.20
2023-02-27T01:30:57.634Z,6.35
2023-02-27T01:33:24.506Z,5.80
2023-02-27T01:35:51.589Z,12.10
2023-02-27T01:38:18.440Z,9.95
2023-02-27T01:40:45.603Z,5.57
2023-02-27T01:43:16.744Z,8.07
2023-02-27T01:45:47.861Z,7.18
2023-02-27T01:48:29.440Z,5.90
2023-02-27T01:50:58.511Z,10.40
2023-02-27T01:53:26.221Z,12.75
2023-02-27T01:55:59.819Z,5.97
2023-02-27T01:58:27.318Z,11.65
2023-02-27T02:00:54.686Z,8.88
2023-02-27T02:03:25.837Z,8.13
2023-02-27T02:05:54.443Z,11.20
2023-02-27T02:08:21.929Z,10.55
2023-02-27T02:10:50.190Z,11.85
2023-02-27T02:13:17.475Z,8.00
2023-02-27T02:15:54.663Z,8.38
2023-02-27T02:18:21.459Z,10.20
2023-02-27T02:20:51.258Z,7.22
2023-02-27T02:23:33.542Z,8.23
2023-02-27T02:26:12.918Z,8.93
2023-02-27T02:28:42.912Z,6.18
2023-02-27T02:31:25.232Z,5.80
2023-02-27T02:33:52.288Z,9.60
2023-02-27T02:36:38.250Z,7.15
2023-02-27T02:39:05.223Z,16.45
2023-02-27T02:41:44.150Z,13.13
2023-02-27T02:44:19.665Z,9.48
2023-02-27T02:46:59.644Z,9.10
2023-02-27T02:49:32.687Z,8.48
2023-02-27T02:52:09.216Z,17.40
2023-02-27T02:54:35.979Z,16.42
2023-02-27T02:57:09.307Z,8.68
2023-02-27T02:59:42.173Z,11.15
2023-02-27T03:02:14.115Z,8.65
2023-02-27T03:04:53.599Z,12.23
2023-02-27T03:07:23.156Z,7.22
2023-02-27T03:09:55.412Z,8.82
2023-02-27T03:12:23.638Z,5.93
2023-02-27T03:14:59.420Z,7.90
2023-02-27T03:17:59.453Z,10.93
2023-02-27T03:20:29.474Z,7.43
2023-02-27T03:22:58.198Z,6.07
2023-02-27T03:25:27.121Z,9.57
2023-02-27T03:27:57.587Z,9.52
2023-02-27T03:30:27.792Z,12.43
2023-02-27T03:32:59.097Z,8.82
2023-02-27T03:35:43.813Z,13.73
2023-02-27T03:38:22.660Z,13.15
2023-02-27T03:40:56.587Z,11.80
2023-02-27T03:43:36.170Z,8.85
2023-02-27T03:46:35.655Z,11.48
2023-02-27T03:49:02.798Z,9.02
2023-02-27T03:51:31.572Z,7.88
2023-02-27T03:54:19.904Z,12.02
2023-02-27T03:56:46.710Z,8.80
2023-02-27T03:59:14.878Z,43.15
2023-02-27T04:01:42.556Z,11.38
2023-02-27T04:04:14.688Z,8.65
2023-02-27T04:07:03.211Z,9.50
2023-02-27T04:09:41.533Z,11.20
2023-02-27T04:12:14.266Z,7.45
2023-02-27T04:15:05.030Z,7.95
2023-02-27T04:17:35.080Z,13.25
2023-02-27T04:20:07.205Z,7.90
2023-02-27T04:22:34.049Z,15.75
2023-02-27T04:25:03.903Z,9.77
2023-02-27T04:27:43.237Z,10.90
2023-02-27T04:30:22.385Z,11.32
2023-02-27T04:32:55.108Z,14.52
2023-02-27T04:35:28.044Z,11.43
2023-02-27T04:37:54.834Z,12.75
2023-02-27T04:40:25.129Z,13.90
2023-02-27T04:42:55.215Z,10.32
2023-02-27T04:45:24.054Z,8.93
2023-02-27T04:47:58.192Z,12.02
2023-02-27T04:50:28.275Z,7.75
2023-02-27T04:53:07.324Z,11.73
2023-02-27T04:55:36.378Z,8.32
2023-02-27T04:58:07.370Z,10.77
2023-02-27T05:00:36.122Z,10.55
2023-02-27T05:03:11.337Z,9.70
2023-02-27T05:05:38.390Z,14.18
2023-02-27T05:08:16.601Z,9.32
2023-02-27T05:10:47.319Z,9.88
2023-02-27T05:13:20.602Z,9.63
2023-02-27T05:15:59.834Z,13.20
2023-02-27T05:18:27.000Z,12.77
2023-02-27T05:21:26.729Z,10.60
2023-02-27T05:23:58.654Z,12.23
2023-02-27T05:26:43.870Z,12.45
2023-02-27T05:29:17.419Z,13.80
2023-02-27T05:31:54.427Z,19.27
2023-02-27T05:34:32.282Z,14.38
2023-02-27T05:37:05.663Z,12.05
2023-02-27T05:39:37.456Z,15.85
2023-02-27T05:42:07.905Z,14.20
2023-02-27T05:44:35.702Z,16.17
2023-02-27T05:47:11.276Z,16.08
2023-02-27T05:49:43.165Z,17.42
2023-02-27T05:52:12.083Z,10.48
2023-02-27T05:54:42.258Z,15.85
2023-02-27T05:57:11.251Z,12.82
2023-02-27T05:59:45.923Z,11.02
2023-02-27T06:02:13.000Z,27.52
2023-02-27T06:04:41.302Z,13.35
2023-02-27T06:07:08.650Z,12.82
2023-02-27T06:09:35.575Z,16.55
2023-02-27T06:12:02.606Z,21.73
2023-02-27T06:14:29.537Z,14.75
2023-02-27T06:16:57.344Z,13.82
2023-02-27T06:19:24.157Z,12.45
2023-02-27T06:21:50.960Z,12.18
2023-02-27T06:24:21.221Z,14.95
2023-02-27T06:26:48.915Z,14.55
2023-02-27T06:29:15.807Z,17.52
2023-02-27T06:31:42.579Z,15.85
2023-02-27T06:34:09.580Z,11.07
2023-02-27T06:36:36.434Z,12.63
2023-02-27T06:39:04.850Z,12.07
2023-02-27T06:41:31.661Z,18.50
2023-02-27T06:43:58.540Z,22.08
2023-02-27T06:46:25.695Z,15.68
2023-02-27T06:48:52.742Z,13.20
2023-02-27T06:51:19.672Z,16.02
2023-02-27T06:53:46.702Z,13.75
2023-02-27T06:56:13.811Z,19.77
2023-02-27T06:58:40.674Z,17.10
2023-02-27T07:01:07.521Z,13.13
2023-02-27T07:03:34.518Z,16.33
2023-02-27T07:06:02.463Z,15.13
2023-02-27T07:08:29.358Z,15.73
2023-02-27T07:10:56.323Z,18.73
2023-02-27T07:13:23.356Z,16.35
2023-02-27T07:15:50.603Z,15.93
2023-02-27T07:18:17.526Z,16.55
2023-02-27T07:20:44.419Z,14.68
2023-02-27T07:23:11.224Z,14.40
2023-02-27T07:25:37.984Z,13.90
2023-02-27T07:28:05.136Z,17.67
2023-02-27T07:30:32.236Z,16.27
2023-02-27T07:32:59.367Z,16.55
2023-02-27T07:35:26.429Z,18.85
2023-02-27T07:37:53.639Z,15.40
2023-02-27T07:40:20.698Z,14.52
2023-02-27T07:42:48.553Z,16.67
2023-02-27T07:45:15.755Z,17.55
2023-02-27T07:47:42.643Z,17.30
2023-02-27T07:50:09.969Z,13.45
2023-02-27T07:52:36.848Z,14.43
2023-02-27T07:55:03.860Z,16.33
2023-02-27T07:57:30.645Z,21.70
2023-02-27T07:59:57.579Z,20.08
2023-02-27T08:02:24.381Z,25.60
2023-02-27T08:04:51.871Z,21.98
2023-02-27T08:07:18.828Z,20.83
2023-02-27T08:09:45.693Z,22.70
2023-02-27T08:12:12.544Z,18.40
2023-02-27T08:14:39.765Z,25.83
2023-02-27T08:17:06.639Z,27.77
2023-02-27T08:19:33.593Z,28.88
2023-02-27T08:22:00.944Z,21.23
2023-02-27T08:24:27.834Z,24.35
2023-02-27T08:26:54.715Z,20.95
2023-02-27T08:29:21.631Z,18.88
2023-02-27T08:31:48.912Z,22.00
2023-02-27T08:34:16.734Z,15.40
2023-02-27T08:36:43.784Z,15.85
2023-02-27T08:39:11.271Z,21.45
2023-02-27T08:41:38.160Z,17.45
2023-02-27T08:44:04.992Z,15.68
2023-02-27T08:46:31.884Z,19.20
2023-02-27T08:48:59.202Z,21.77
2023-02-27T08:51:26.647Z,16.88
2023-02-27T08:53:56.015Z,14.70
2023-02-27T08:56:22.842Z,17.52
2023-02-27T08:58:49.613Z,19.90
2023-02-27T09:01:16.520Z,16.65
2023-02-27T09:03:43.679Z,18.15
2023-02-27T09:06:10.432Z,18.23
2023-02-27T09:08:37.382Z,19.45
2023-02-27T09:11:05.530Z,17.98
2023-02-27T09:13:32.472Z,11.23
2023-02-27T09:15:59.335Z,17.70
2023-02-27T09:18:27.708Z,21.85
2023-02-27T09:20:56.472Z,15.05
2023-02-27T09:23:23.651Z,18.80
2023-02-27T09:25:50.542Z,19.08
2023-02-27T09:28:17.490Z,20.33
2023-02-27T09:30:44.614Z,16.52
2023-02-27T09:33:11.491Z,20.92
2023-02-27T09:35:38.465Z,16.90
2023-02-27T09:38:05.525Z,16.58
2023-02-27T09:40:33.397Z,15.20
2023-02-27T09:43:02.536Z,51.90
2023-02-27T09:45:39.048Z,23.63
2023-02-27T09:48:08.832Z,26.67
2023-02-27T09:50:40.122Z,18.75
2023-02-27T09:53:12.534Z,23.10
2023-02-27T09:55:40.812Z,32.95
2023-02-27T09:58:20.317Z,20.00
2023-02-27T10:01:00.339Z,38.78
2023-02-27T10:03:30.279Z,20.90
2023-02-27T10:05:57.014Z,45.30
2023-02-27T10:08:30.720Z,20.45
2023-02-27T10:11:01.037Z,20.92
2023-02-27T10:13:46.702Z,18.52
2023-02-27T10:16:15.498Z,17.30
2023-02-27T10:18:51.714Z,17.52
2023-02-27T10:21:21.053Z,27.08
2023-02-27T10:23:53.980Z,16.65
2023-02-27T10:26:22.257Z,15.55
2023-02-27T10:28:52.437Z,24.08
2023-02-27T10:31:22.487Z,14.32
2023-02-27T10:33:49.805Z,16.08
2023-02-27T10:36:32.558Z,13.13
2023-02-27T10:39:07.098Z,15.13
2023-02-27T10:41:35.454Z,16.60
2023-02-27T10:44:02.660Z,9.23
2023-02-27T10:46:31.609Z,12.40
2023-02-27T10:49:00.247Z,12.05
2023-02-27T10:51:31.713Z,12.63
2023-02-27T10:54:21.118Z,14.65
2023-02-27T10:56:50.451Z,33.15
2023-02-27T10:59:19.292Z,14.18
2023-02-27T11:01:50.244Z,28.38
2023-02-27T11:04:26.274Z,25.05
2023-02-27T11:06:53.899Z,15.60
2023-02-27T11:09:26.743Z,8.45
2023-02-27T11:11:54.093Z,12.73
2023-02-27T11:14:27.848Z,12.27
2023-02-27T11:16:58.252Z,14.45
2023-02-27T11:19:25.201Z,9.05
2023-02-27T11:22:13.698Z,8.70
2023-02-27T11:24:40.567Z,11.30
2023-02-27T11:27:26.801Z,10.85
2023-02-27T11:29:57.103Z,10.05
2023-02-27T11:32:25.503Z,11.07
2023-02-27T11:34:52.992Z,11.80
2023-02-27T11:37:19.806Z,11.23
2023-02-27T11:39:51.639Z,12.85
2023-02-27T11:42:29.093Z,20.13
2023-02-27T11:45:07.135Z,14.55
2023-02-27T11:47:35.617Z,10.27
2023-02-27T11:50:09.118Z,10.80
2023-02-27T11:52:45.287Z,8.88
2023-02-27T11:55:18.172Z,6.78
2023-02-27T11:57:46.909Z,7.30
2023-02-27T12:00:19.865Z,9.68
2023-02-27T12:02:53.056Z,10.93
2023-02-27T12:05:24.527Z,11.77
2023-02-27T12:07:55.095Z,8.20
2023-02-27T12:10:24.854Z,5.65
2023-02-27T12:13:14.714Z,15.13
2023-02-27T12:15:47.177Z,5.60
2023-02-27T12:18:17.390Z,5.40
2023-02-27T12:21:07.653Z,10.43
2023-02-27T12:23:38.786Z,6.55
2023-02-27T12:26:22.067Z,8.00
2023-02-27T12:28:58.054Z,7.60
2023-02-27T12:31:37.482Z,5.95
2023-02-27T12:34:29.426Z,6.47
2023-02-27T12:37:01.133Z,6.30
2023-02-27T12:42:01.972Z,4.97
2023-02-27T12:44:41.829Z,5.57
2023-02-27T12:47:15.373Z,9.60
2023-02-27T12:49:48.356Z,8.07
2023-02-27T12:52:21.324Z,8.52
2023-02-27T12:55:06.731Z,9.48
2023-02-27T12:57:49.009Z,5.05
2023-02-27T13:00:15.937Z,6.30
2023-02-27T13:02:54.766Z,5.88
2023-02-27T13:05:24.806Z,8.50
2023-02-27T13:07:58.029Z,8.70
2023-02-27T13:10:31.517Z,7.70
2023-02-27T13:13:08.776Z,7.10
2023-02-27T13:15:49.531Z,5.13
2023-02-27T13:18:21.509Z,3.60
2023-02-27T13:20:53.879Z,4.38
2023-02-27T13:23:26.724Z,6.45
2023-02-27T13:25:55.433Z,7.75
2023-02-27T13:28:26.570Z,4.18
2023-02-27T13:30:56.417Z,5.78
2023-02-27T13:33:26.089Z,7.88
2023-02-27T13:35:56.067Z,18.70
2023-02-27T13:38:34.167Z,6.15
2023-02-27T13:41:19.608Z,5.68
2023-02-27T13:44:09.527Z,5.65
2023-02-27T13:46:36.458Z,6.57
2023-02-27T13:49:09.159Z,4.13
2023-02-27T13:51:36.173Z,7.72
2023-02-27T13:54:09.862Z,4.90
2023-02-27T13:56:36.762Z,5.22
2023-02-27T13:59:30.601Z,4.10
2023-02-27T14:01:57.503Z,7.40
2023-02-27T14:04:26.643Z,4.45
2023-02-27T14:07:01.656Z,4.88
2023-02-27T14:09:34.477Z,5.10
2023-02-27T14:12:02.645Z,8.90
2023-02-27T14:14:46.629Z,8.38
2023-02-27T14:17:34.704Z,5.00
2023-02-27T14:20:04.858Z,8.35
2023-02-27T14:22:33.776Z,4.88
2023-02-27T14:25:24.152Z,4.63
2023-02-27T14:27:54.728Z,5.70
2023-02-27T14:30:26.664Z,4.68
2023-02-27T14:33:01.644Z,3.10
2023-02-27T14:35:29.554Z,3.50
2023-02-27T14:37:56.597Z,4.47
2023-02-27T14:40:30.039Z,4.93
2023-02-27T14:43:03.647Z,4.07
2023-02-27T14:45:31.540Z,4.40
2023-02-27T14:47:58.581Z,4.65
2023-02-27T14:50:27.769Z,3.65
2023-02-27T14:52:54.977Z,5.47
2023-02-27T14:55:30.487Z,4.03
2023-02-27T14:57:59.408Z,7.03
2023-02-27T15:00:34.888Z,3.53
2023-02-27T15:03:11.023Z,3.72
2023-02-27T15:05:41.595Z,6.15
2023-02-27T15:08:13.715Z,6.72
2023-02-27T15:10:42.840Z,5.80
2023-02-27T15:13:19.942Z,7.38
2023-02-27T15:15:52.343Z,6.38
2023-02-27T15:18:23.051Z,5.13
2023-02-27T15:20:59.665Z,6.30
2023-02-27T15:23:28.098Z,8.07
2023-02-27T15:25:59.203Z,6.53
2023-02-27T15:28:30.718Z,4.95
2023-02-27T15:30:57.996Z,6.38
2023-02-27T15:33:34.888Z,5.88
2023-02-27T15:36:09.240Z,3.97
2023-02-27T15:38:39.434Z,5.68
2023-02-27T15:41:06.651Z,4.43
2023-02-27T15:43:35.474Z,8.07
2023-02-27T15:46:03.575Z,6.90
2023-02-27T15:48:40.024Z,6.03
2023-02-27T15:51:23.321Z,6.95
2023-02-27T15:53:56.848Z,6.22
2023-02-27T15:56:38.458Z,7.60
2023-02-27T16:01:36.530Z,4.03
2023-02-27T16:04:09.783Z,7.72
2023-02-27T16:06:40.846Z,11.15
2023-02-27T16:09:38.854Z,4.35
2023-02-27T16:12:34.137Z,7.68
2023-02-27T16:15:23.674Z,7.00
2023-02-27T16:17:57.068Z,5.85
2023-02-27T16:20:31.397Z,5.18
2023-02-27T16:23:09.687Z,3.92
2023-02-27T16:25:37.680Z,8.32
2023-02-27T16:28:04.994Z,6.85
2023-02-27T16:30:32.738Z,4.97
2023-02-27T16:33:03.560Z,5.97
2023-02-27T16:35:36.917Z,6.35
2023-02-27T16:38:18.700Z,4.55
2023-02-27T16:46:55.864Z,5.00
2023-02-27T16:49:33.505Z,3.25
2023-02-27T16:52:19.410Z,2.95
2023-02-27T16:57:54.728Z,6.15
2023-02-27T17:00:29.045Z,5.45
2023-02-27T17:03:26.290Z,3.97
2023-02-27T17:05:58.751Z,14.52
2023-02-27T17:08:29.376Z,6.97
2023-02-27T17:10:58.262Z,5.88
2023-02-27T17:13:31.642Z,5.30
2023-02-27T17:16:02.128Z,6.75
2023-02-27T17:18:37.543Z,5.03
2023-02-27T17:21:23.107Z,8.77
2023-02-27T17:23:56.404Z,6.82
2023-02-27T17:26:35.419Z,4.95
2023-02-27T17:29:03.508Z,6.05
2023-02-27T17:31:31.254Z,6.10
2023-02-27T17:34:05.152Z,9.65
2023-02-27T17:36:35.793Z,11.98
2023-02-27T17:39:07.065Z,7.90
2023-02-27T17:41:39.512Z,9.77
2023-02-27T17:44:29.424Z,5.88
2023-02-27T17:46:59.116Z,6.38
2023-02-27T17:49:25.973Z,6.57
2023-02-27T17:51:52.931Z,10.20
2023-02-27T17:54:19.833Z,9.50
2023-02-27T17:56:47.125Z,11.25
2023-02-27T17:59:14.097Z,7.32
2023-02-27T18:01:41.018Z,7.82
2023-02-27T18:04:11.630Z,10.02
2023-02-27T18:06:38.885Z,9.88
2023-02-27T18:09:05.742Z,7.43
2023-02-27T18:11:32.667Z,9.80
2023-02-27T18:14:00.460Z,8.23
2023-02-27T18:16:27.568Z,17.85
2023-02-27T18:18:54.811Z,17.00
2023-02-27T18:21:23.072Z,13.20
2023-02-27T18:23:51.080Z,10.82
2023-02-27T18:26:28.894Z,7.00
2023-02-27T18:29:07.571Z,9.15
2023-02-27T18:31:40.152Z,7.60
2023-02-27T18:34:10.582Z,11.60
2023-02-27T18:36:40.832Z,10.45
2023-02-27T18:39:09.709Z,11.70
2023-02-27T18:41:45.063Z,11.98
2023-02-27T18:44:24.997Z,7.88
2023-02-27T18:46:55.604Z,10.80
2023-02-27T18:49:29.691Z,6.68
2023-02-27T18:52:14.759Z,4.43
2023-02-27T18:54:43.247Z,5.82
2023-02-27T18:57:25.306Z,7.10
2023-02-27T19:00:04.272Z,11.32
2023-02-27T19:02:37.227Z,7.53
2023-02-27T19:05:04.519Z,7.20
2023-02-27T19:07:31.455Z,12.85
2023-02-27T19:09:58.366Z,10.80
2023-02-27T19:12:26.073Z,14.13
2023-02-27T19:14:55.032Z,11.38
2023-02-27T19:17:22.230Z,13.48
2023-02-27T19:19:49.594Z,13.98
2023-02-27T19:22:16.426Z,10.05
2023-02-27T19:24:44.407Z,14.40
2023-02-27T19:27:12.097Z,13.55
2023-02-27T19:29:38.924Z,12.18
2023-02-27T19:32:07.642Z,14.13
2023-02-27T19:34:34.620Z,14.05
2023-02-27T19:37:01.641Z,13.20
2023-02-27T19:39:28.398Z,11.00
2023-02-27T19:41:55.314Z,14.10
2023-02-27T19:44:22.123Z,11.75
2023-02-27T19:46:51.530Z,11.70
2023-02-27T19:49:19.770Z,10.80
2023-02-27T19:51:46.702Z,9.25
2023-02-27T19:54:15.041Z,8.95
2023-02-27T19:56:42.252Z,15.30
2023-02-27T19:59:10.530Z,11.00
2023-02-27T20:01:38.980Z,16.27
2023-02-27T20:04:06.843Z,15.98
2023-02-27T20:06:42.284Z,11.38
2023-02-27T20:09:10.370Z,8.05
2023-02-27T20:11:37.526Z,10.63
2023-02-27T20:14:04.861Z,13.32
2023-02-27T20:16:35.541Z,6.20
2023-02-27T20:19:06.109Z,8.60
2023-02-27T20:21:33.830Z,6.00
2023-02-27T20:24:00.805Z,7.47
2023-02-27T20:26:27.848Z,10.75
2023-02-27T20:28:56.574Z,8.70
2023-02-27T20:31:24.565Z,9.20
2023-02-27T20:33:51.581Z,7.32
2023-02-27T20:36:18.457Z,4.40
2023-02-27T20:38:45.480Z,8.57
2023-02-27T20:41:13.788Z,8.48
2023-02-27T20:43:42.931Z,10.43
2023-02-27T20:46:18.447Z,6.28
2023-02-27T20:48:45.697Z,8.60
2023-02-27T20:51:16.433Z,5.88
2023-02-27T20:53:45.230Z,6.22
2023-02-27T20:56:12.318Z,6.80
2023-02-27T20:58:39.400Z,14.68
2023-02-27T21:01:09.906Z,7.82
2023-02-27T21:03:39.197Z,9.23
2023-02-27T21:06:07.307Z,23.15
2023-02-27T21:08:41.079Z,24.52
2023-02-27T21:11:08.215Z,22.55
2023-02-27T21:13:36.217Z,26.58
2023-02-27T21:16:04.489Z,27.77
2023-02-27T21:18:31.326Z,30.15
2023-02-27T21:21:02.490Z,32.90
2023-02-27T21:23:29.318Z,20.33
2023-02-27T21:25:56.191Z,20.88
2023-02-27T21:28:23.085Z,22.02
2023-02-27T21:30:54.421Z,21.55
2023-02-27T21:33:22.378Z,16.73
2023-02-27T21:35:49.596Z,13.40
2023-02-27T21:38:17.022Z,9.75
2023-02-27T21:40:43.851Z,12.70
2023-02-27T21:43:10.638Z,13.63
2023-02-27T21:45:41.743Z,14.13
2023-02-27T21:48:08.620Z,11.55
2023-02-27T21:50:36.692Z,8.88
2023-02-27T21:53:03.563Z,9.30
2023-02-27T21:55:30.708Z,6.57
2023-02-27T21:57:57.550Z,7.30
2023-02-27T22:00:27.866Z,9.95
2023-02-27T22:02:54.819Z,8.77
2023-02-27T22:05:21.660Z,8.82
2023-02-27T22:07:49.870Z,9.07
2023-02-27T22:10:16.699Z,8.00
2023-02-27T22:12:43.505Z,11.05
2023-02-27T22:15:10.674Z,8.88
2023-02-27T22:17:37.426Z,8.35
2023-02-27T22:20:06.968Z,7.60
2023-02-27T22:22:33.780Z,8.05
2023-02-27T22:25:00.630Z,8.40
2023-02-27T22:27:27.885Z,8.05
2023-02-27T22:29:55.072Z,9.27
2023-02-27T22:32:21.915Z,7.13
2023-02-27T22:34:49.567Z,10.95
2023-02-27T22:37:19.290Z,8.60
2023-02-27T22:39:46.093Z,10.93
2023-02-27T22:42:13.739Z,7.15
2023-02-27T22:44:40.589Z,12.10
2023-02-27T22:47:07.401Z,8.57
2023-02-27T22:49:34.191Z,11.65
2023-02-27T22:52:01.279Z,9.82
2023-02-27T22:54:28.069Z,12.27
2023-02-27T22:56:57.943Z,11.98
2023-02-27T22:59:25.784Z,12.68
2023-02-27T23:01:54.039Z,12.75
2023-02-27T23:04:22.190Z,14.02
2023-02-27T23:06:52.555Z,12.57
2023-02-27T23:09:21.040Z,12.40
2023-02-27T23:11:48.224Z,9.77
2023-02-27T23:14:15.007Z,10.55
2023-02-27T23:16:45.719Z,11.45
2023-02-27T23:19:17.783Z,11.10
2023-02-27T23:21:45.101Z,11.45
2023-02-27T23:24:13.774Z,13.23
2023-02-27T23:26:41.880Z,10.77
2023-02-27T23:29:09.103Z,20.02
2023-02-27T23:31:36.970Z,17.77
2023-02-27T23:34:07.393Z,13.40
2023-02-27T23:36:34.914Z,11.88
2023-02-27T23:39:03.001Z,15.13
2023-02-27T23:41:30.247Z,14.98
2023-02-27T23:44:15.802Z,9.68
2023-02-27T23:46:42.620Z,9.02
2023-02-27T23:49:09.453Z,10.30
2023-02-27T23:51:36.776Z,9.43
2023-02-27T23:54:03.885Z,10.27
2023-02-27T23:56:31.023Z,7.50
2023-02-27T23:59:01.981Z,9.52
